Terminal Aerodrome Forecast
Issued by NWS Amarillo, TX

Home | Current Version | Previous Version | Text Only | Print | Product List | Glossary On
Versions: 1 2 3 4 5 6 7 8 9 10 11 12 13 14 15 16 17 18
000
FTUS44 KAMA 232321
TAFDHT
TAF
KDHT 232321Z 2400/2424 22015G25KT P6SM FEW090
     FM240200 20014KT P6SM FEW100 SCT300
     FM241800 22014G24KT P6SM BKN100=

USA.gov is the U.S. government's official web portal to all federal, state and local government web resources and services.